sensor_id;sensor_type;location;lat;lon;timestamp;pressure;altitude;pressure_sealevel;temperature;humidity
51239;BME280;38154;47.548;18.828;2023-04-20T00:01:31;98629.28;;;6.62;100.00
51239;BME280;38154;47.548;18.828;2023-04-20T00:03:57;98630.28;;;6.71;100.00
51239;BME280;38154;47.548;18.828;2023-04-20T00:06:24;98633.75;;;6.73;100.00
51239;BME280;38154;47.548;18.828;2023-04-20T00:08:49;98628.72;;;6.83;100.00
51239;BME280;38154;47.548;18.828;2023-04-20T00:11:15;98626.25;;;6.93;100.00
51239;BME280;38154;47.548;18.828;2023-04-20T00:13:41;98632.34;;;6.96;100.00
51239;BME280;38154;47.548;18.828;2023-04-20T00:16:07;98632.22;;;6.88;100.00
51239;BME280;38154;47.548;18.828;2023-04-20T00:18:32;98633.12;;;6.89;100.00
51239;BME280;38154;47.548;18.828;2023-04-20T00:20:58;98631.38;;;6.88;100.00
51239;BME280;38154;47.548;18.828;2023-04-20T00:23:24;98634.84;;;6.90;100.00
51239;BME280;38154;47.548;18.828;2023-04-20T00:25:49;98638.25;;;6.86;100.00
51239;BME280;38154;47.548;18.828;2023-04-20T00:28:16;98629.63;;;6.85;100.00
51239;BME280;38154;47.548;18.828;2023-04-20T00:30:41;98628.87;;;6.94;100.00
51239;BME280;38154;47.548;18.828;2023-04-20T00:33:07;98629.91;;;7.05;100.00
51239;BME280;38154;47.548;18.828;2023-04-20T00:35:33;98624.69;;;7.07;100.00
51239;BME280;38154;47.548;18.828;2023-04-20T00:37:58;98629.03;;;7.06;100.00
51239;BME280;38154;47.548;18.828;2023-04-20T00:40:24;98634.16;;;7.03;100.00
51239;BME280;38154;47.548;18.828;2023-04-20T00:42:50;98627.97;;;6.94;100.00
51239;BME280;38154;47.548;18.828;2023-04-20T00:45:15;98632.25;;;6.90;100.00
51239;BME280;38154;47.548;18.828;2023-04-20T00:47:41;98628.78;;;6.88;100.00
51239;BME280;38154;47.548;18.828;2023-04-20T00:50:07;98631.28;;;6.82;100.00
51239;BME280;38154;47.548;18.828;2023-04-20T00:52:33;98631.19;;;6.74;100.00
51239;BME280;38154;47.548;18.828;2023-04-20T00:54:58;98633.59;;;6.63;100.00
51239;BME280;38154;47.548;18.828;2023-04-20T00:57:25;98637.00;;;6.59;100.00
51239;BME280;38154;47.548;18.828;2023-04-20T00:59:50;98636.91;;;6.53;100.00
51239;BME280;38154;47.548;18.828;2023-04-20T01:02:16;98631.59;;;6.42;100.00
51239;BME280;38154;47.548;18.828;2023-04-20T01:04:43;98624.53;;;6.34;100.00
51239;BME280;38154;47.548;18.828;2023-04-20T01:07:09;98633.00;;;6.22;100.00
51239;BME280;38154;47.548;18.828;2023-04-20T01:09:36;98627.53;;;6.06;100.00
51239;BME280;38154;47.548;18.828;2023-04-20T01:12:02;98633.44;;;5.98;100.00
51239;BME280;38154;47.548;18.828;2023-04-20T01:14:27;98623.06;;;5.96;100.00
51239;BME280;38154;47.548;18.828;2023-04-20T01:16:54;98629.91;;;5.95;100.00
51239;BME280;38154;47.548;18.828;2023-04-20T01:19:20;98630.69;;;5.91;100.00
51239;BME280;38154;47.548;18.828;2023-04-20T01:21:46;98629.72;;;5.85;100.00
51239;BME280;38154;47.548;18.828;2023-04-20T01:24:12;98627.88;;;5.78;100.00
51239;BME280;38154;47.548;18.828;2023-04-20T01:26:38;98637.91;;;5.61;100.00
51239;BME280;38154;47.548;18.828;2023-04-20T01:29:03;98632.34;;;5.41;100.00
51239;BME280;38154;47.548;18.828;2023-04-20T01:31:29;98634.78;;;5.33;100.00
51239;BME280;38154;47.548;18.828;2023-04-20T01:33:55;98628.94;;;5.42;100.00
51239;BME280;38154;47.548;18.828;2023-04-20T01:36:21;98632.31;;;5.39;100.00
51239;BME280;38154;47.548;18.828;2023-04-20T01:38:46;98630.44;;;5.30;100.00
51239;BME280;38154;47.548;18.828;2023-04-20T01:41:12;98622.69;;;5.30;100.00
51239;BME280;38154;47.548;18.828;2023-04-20T01:43:38;98620.81;;;5.23;100.00
51239;BME280;38154;47.548;18.828;2023-04-20T01:46:04;98622.34;;;5.13;100.00
51239;BME280;38154;47.548;18.828;2023-04-20T01:48:30;98615.34;;;5.09;100.00
51239;BME280;38154;47.548;18.828;2023-04-20T01:50:56;98617.88;;;5.05;100.00
51239;BME280;38154;47.548;18.828;2023-04-20T01:53:22;98609.91;;;4.95;100.00
51239;BME280;38154;47.548;18.828;2023-04-20T01:55:49;98611.34;;;4.82;100.00
51239;BME280;38154;47.548;18.828;2023-04-20T01:58:15;98607.66;;;4.70;100.00
51239;BME280;38154;47.548;18.828;2023-04-20T02:00:41;98612.56;;;4.59;100.00
51239;BME280;38154;47.548;18.828;2023-04-20T02:03:07;98609.81;;;4.51;100.00
51239;BME280;38154;47.548;18.828;2023-04-20T02:05:32;98613.22;;;4.50;100.00
51239;BME280;38154;47.548;18.828;2023-04-20T02:07:58;98616.00;;;4.58;100.00
51239;BME280;38154;47.548;18.828;2023-04-20T02:10:24;98620.22;;;4.54;100.00
51239;BME280;38154;47.548;18.828;2023-04-20T02:12:50;98619.38;;;4.55;100.00
51239;BME280;38154;47.548;18.828;2023-04-20T02:15:15;98616.66;;;4.51;100.00
51239;BME280;38154;47.548;18.828;2023-04-20T02:17:41;98620.00;;;4.45;100.00
51239;BME280;38154;47.548;18.828;2023-04-20T02:20:08;98623.47;;;4.47;100.00
51239;BME280;38154;47.548;18.828;2023-04-20T02:22:35;98617.53;;;4.50;100.00
51239;BME280;38154;47.548;18.828;2023-04-20T02:25:01;98619.31;;;4.54;100.00
51239;BME280;38154;47.548;18.828;2023-04-20T02:27:27;98613.97;;;4.44;100.00
51239;BME280;38154;47.548;18.828;2023-04-20T02:29:52;98617.19;;;4.34;100.00
51239;BME280;38154;47.548;18.828;2023-04-20T02:32:18;98614.53;;;4.31;100.00
51239;BME280;38154;47.548;18.828;2023-04-20T02:34:44;98618.72;;;4.26;100.00
51239;BME280;38154;47.548;18.828;2023-04-20T02:37:09;98616.88;;;4.22;100.00
51239;BME280;38154;47.548;18.828;2023-04-20T02:39:35;98615.06;;;4.18;100.00
51239;BME280;38154;47.548;18.828;2023-04-20T02:42:01;98615.75;;;4.12;100.00
51239;BME280;38154;47.548;18.828;2023-04-20T02:44:27;98614.75;;;4.05;100.00
51239;BME280;38154;47.548;18.828;2023-04-20T02:46:53;98611.25;;;4.03;100.00
51239;BME280;38154;47.548;18.828;2023-04-20T02:49:18;98614.75;;;4.05;100.00
51239;BME280;38154;47.548;18.828;2023-04-20T02:51:44;98612.38;;;4.13;100.00
51239;BME280;38154;47.548;18.828;2023-04-20T02:54:10;98613.09;;;4.07;100.00
51239;BME280;38154;47.548;18.828;2023-04-20T02:56:35;98613.87;;;4.05;100.00
51239;BME280;38154;47.548;18.828;2023-04-20T02:59:01;98620.91;;;4.11;100.00
51239;BME280;38154;47.548;18.828;2023-04-20T03:01:27;98620.87;;;4.09;100.00
51239;BME280;38154;47.548;18.828;2023-04-20T03:03:53;98624.25;;;4.06;100.00
51239;BME280;38154;47.548;18.828;2023-04-20T03:06:18;98614.78;;;4.07;100.00
51239;BME280;38154;47.548;18.828;2023-04-20T03:08:44;98624.25;;;4.06;100.00
51239;BME280;38154;47.548;18.828;2023-04-20T03:11:10;98628.66;;;4.11;100.00
51239;BME280;38154;47.548;18.828;2023-04-20T03:13:36;98627.09;;;4.19;100.00
51239;BME280;38154;47.548;18.828;2023-04-20T03:16:01;98631.59;;;4.26;100.00
51239;BME280;38154;47.548;18.828;2023-04-20T03:18:27;98631.44;;;4.20;100.00
51239;BME280;38154;47.548;18.828;2023-04-20T03:20:53;98633.84;;;4.12;100.00
51239;BME280;38154;47.548;18.828;2023-04-20T03:23:18;98631.97;;;4.06;100.00
51239;BME280;38154;47.548;18.828;2023-04-20T03:25:44;98629.25;;;4.00;100.00
51239;BME280;38154;47.548;18.828;2023-04-20T03:28:10;98628.09;;;4.22;100.00
51239;BME280;38154;47.548;18.828;2023-04-20T03:30:36;98628.66;;;4.12;100.00
51239;BME280;38154;47.548;18.828;2023-04-20T03:33:02;98631.84;;;4.02;100.00
51239;BME280;38154;47.548;18.828;2023-04-20T03:35:27;98642.19;;;4.02;100.00
51239;BME280;38154;47.548;18.828;2023-04-20T03:37:53;98636.31;;;4.07;100.00
51239;BME280;38154;47.548;18.828;2023-04-20T03:40:18;98645.78;;;4.08;100.00
51239;BME280;38154;47.548;18.828;2023-04-20T03:42:44;98649.84;;;3.99;100.00
51239;BME280;38154;47.548;18.828;2023-04-20T03:45:10;98645.37;;;3.92;100.00
51239;BME280;38154;47.548;18.828;2023-04-20T03:47:36;98644.87;;;4.06;100.00
51239;BME280;38154;47.548;18.828;2023-04-20T03:50:02;98646.59;;;4.06;100.00
51239;BME280;38154;47.548;18.828;2023-04-20T03:52:28;98633.84;;;4.12;100.00
51239;BME280;38154;47.548;18.828;2023-04-20T03:54:54;98646.56;;;4.39;100.00
51239;BME280;38154;47.548;18.828;2023-04-20T03:57:20;98636.97;;;4.35;100.00
51239;BME280;38154;47.548;18.828;2023-04-20T03:59:45;98642.13;;;4.35;100.00
51239;BME280;38154;47.548;18.828;2023-04-20T04:02:11;98641.44;;;4.41;100.00
51239;BME280;38154;47.548;18.828;2023-04-20T04:04:38;98644.91;;;4.43;100.00
51239;BME280;38154;47.548;18.828;2023-04-20T04:07:03;98644.84;;;4.40;100.00
51239;BME280;38154;47.548;18.828;2023-04-20T04:09:29;98649.88;;;4.35;100.00
51239;BME280;38154;47.548;18.828;2023-04-20T04:11:55;98646.25;;;4.27;100.00
51239;BME280;38154;47.548;18.828;2023-04-20T04:14:21;98638.53;;;4.28;100.00
51239;BME280;38154;47.548;18.828;2023-04-20T04:16:47;98646.34;;;4.32;100.00
51239;BME280;38154;47.548;18.828;2023-04-20T04:19:13;98648.12;;;4.33;100.00
51239;BME280;38154;47.548;18.828;2023-04-20T04:21:38;98645.75;;;4.42;100.00
51239;BME280;38154;47.548;18.828;2023-04-20T04:24:04;98649.53;;;4.56;100.00
51239;BME280;38154;47.548;18.828;2023-04-20T04:26:30;98643.84;;;4.71;100.00
51239;BME280;38154;47.548;18.828;2023-04-20T04:28:56;98645.19;;;4.93;100.00
51239;BME280;38154;47.548;18.828;2023-04-20T04:31:22;98654.81;;;5.00;100.00
51239;BME280;38154;47.548;18.828;2023-04-20T04:33:48;98660.19;;;5.10;100.00
51239;BME280;38154;47.548;18.828;2023-04-20T04:36:14;98657.59;;;5.10;100.00
51239;BME280;38154;47.548;18.828;2023-04-20T04:38:40;98671.38;;;5.10;100.00
51239;BME280;38154;47.548;18.828;2023-04-20T04:41:11;98653.81;;;5.35;100.00
51239;BME280;38154;47.548;18.828;2023-04-20T04:43:38;98669.78;;;5.60;100.00
51239;BME280;38154;47.548;18.828;2023-04-20T04:46:07;98666.00;;;5.88;100.00
51239;BME280;38154;47.548;18.828;2023-04-20T04:48:36;98657.75;;;6.07;100.00
51239;BME280;38154;47.548;18.828;2023-04-20T04:51:02;98654.94;;;6.45;100.00
51239;BME280;38154;47.548;18.828;2023-04-20T04:53:28;98657.06;;;6.71;100.00
51239;BME280;38154;47.548;18.828;2023-04-20T04:55:53;98659.97;;;6.94;100.00
51239;BME280;38154;47.548;18.828;2023-04-20T04:58:19;98662.88;;;7.19;100.00
51239;BME280;38154;47.548;18.828;2023-04-20T05:00:45;98660.63;;;7.47;100.00
51239;BME280;38154;47.548;18.828;2023-04-20T05:03:10;98661.91;;;7.81;100.00
51239;BME280;38154;47.548;18.828;2023-04-20T05:05:36;98665.78;;;8.25;100.00
51239;BME280;38154;47.548;18.828;2023-04-20T05:08:02;98664.94;;;8.29;100.00
51239;BME280;38154;47.548;18.828;2023-04-20T05:10:28;98669.34;;;8.38;100.00
51239;BME280;38154;47.548;18.828;2023-04-20T05:12:54;98666.13;;;8.65;100.00
51239;BME280;38154;47.548;18.828;2023-04-20T05:15:19;98668.00;;;8.86;100.00
51239;BME280;38154;47.548;18.828;2023-04-20T05:17:45;98681.19;;;9.17;100.00
51239;BME280;38154;47.548;18.828;2023-04-20T05:20:13;98675.31;;;9.72;100.00
51239;BME280;38154;47.548;18.828;2023-04-20T05:22:39;98684.09;;;10.15;100.00
51239;BME280;38154;47.548;18.828;2023-04-20T05:25:06;98685.00;;;10.31;100.00
51239;BME280;38154;47.548;18.828;2023-04-20T05:27:32;98685.78;;;9.90;100.00
51239;BME280;38154;47.548;18.828;2023-04-20T05:29:57;98684.97;;;9.96;100.00
51239;BME280;38154;47.548;18.828;2023-04-20T05:32:23;98684.13;;;10.23;100.00
51239;BME280;38154;47.548;18.828;2023-04-20T05:34:49;98680.69;;;10.53;100.00
51239;BME280;38154;47.548;18.828;2023-04-20T05:37:15;98687.63;;;10.84;100.00
51239;BME280;38154;47.548;18.828;2023-04-20T05:39:41;98688.53;;;10.84;100.00
51239;BME280;38154;47.548;18.828;2023-04-20T05:42:07;98689.34;;;10.91;100.00
51239;BME280;38154;47.548;18.828;2023-04-20T05:44:33;98698.84;;;11.40;100.00
51239;BME280;38154;47.548;18.828;2023-04-20T05:47:03;98697.06;;;11.46;100.00
51239;BME280;38154;47.548;18.828;2023-04-20T05:49:34;98692.56;;;11.75;100.00
51239;BME280;38154;47.548;18.828;2023-04-20T05:52:00;98695.91;;;12.11;100.00
51239;BME280;38154;47.548;18.828;2023-04-20T05:54:26;98694.06;;;12.27;100.00
51239;BME280;38154;47.548;18.828;2023-04-20T05:56:53;98700.75;;;12.63;98.34
51239;BME280;38154;47.548;18.828;2023-04-20T05:59:19;98695.75;;;13.34;91.68
51239;BME280;38154;47.548;18.828;2023-04-20T06:01:44;98713.28;;;13.99;87.32
51239;BME280;38154;47.548;18.828;2023-04-20T06:04:10;98713.16;;;15.20;83.28
51239;BME280;38154;47.548;18.828;2023-04-20T06:06:36;98718.31;;;16.14;75.66
51239;BME280;38154;47.548;18.828;2023-04-20T06:09:01;98717.41;;;16.54;71.42
51239;BME280;38154;47.548;18.828;2023-04-20T06:11:29;98727.28;;;18.12;64.28
51239;BME280;38154;47.548;18.828;2023-04-20T06:13:56;98732.44;;;18.43;60.82
51239;BME280;38154;47.548;18.828;2023-04-20T06:16:21;98732.59;;;19.71;54.74
51239;BME280;38154;47.548;18.828;2023-04-20T06:18:47;98726.00;;;20.52;52.25
51239;BME280;38154;47.548;18.828;2023-04-20T06:21:13;98721.91;;;21.09;49.75
51239;BME280;38154;47.548;18.828;2023-04-20T06:23:39;98723.19;;;21.62;47.54
51239;BME280;38154;47.548;18.828;2023-04-20T06:26:05;98735.13;;;21.92;46.35
51239;BME280;38154;47.548;18.828;2023-04-20T06:28:33;98736.66;;;21.97;45.71
51239;BME280;38154;47.548;18.828;2023-04-20T06:30:59;98738.22;;;22.20;45.21
51239;BME280;38154;47.548;18.828;2023-04-20T06:33:25;98736.19;;;22.83;42.89
51239;BME280;38154;47.548;18.828;2023-04-20T06:35:50;98734.34;;;23.37;42.75
51239;BME280;38154;47.548;18.828;2023-04-20T06:38:19;98736.97;;;24.05;40.54
51239;BME280;38154;47.548;18.828;2023-04-20T06:40:45;98735.03;;;24.25;38.72
51239;BME280;38154;47.548;18.828;2023-04-20T06:43:10;98739.50;;;24.56;38.96
51239;BME280;38154;47.548;18.828;2023-04-20T06:45:36;98743.19;;;24.38;39.95
51239;BME280;38154;47.548;18.828;2023-04-20T06:48:02;98736.94;;;24.55;39.65
51239;BME280;38154;47.548;18.828;2023-04-20T06:50:28;98738.31;;;25.08;38.32
51239;BME280;38154;47.548;18.828;2023-04-20T06:52:53;98746.31;;;26.12;36.84
51239;BME280;38154;47.548;18.828;2023-04-20T06:55:33;98753.75;;;26.21;36.49
51239;BME280;38154;47.548;18.828;2023-04-20T06:58:37;98734.56;;;25.71;36.81
51239;BME280;38154;47.548;18.828;2023-04-20T07:01:03;98752.34;;;26.57;34.43
51239;BME280;38154;47.548;18.828;2023-04-20T07:03:29;98746.22;;;26.14;35.89
51239;BME280;38154;47.548;18.828;2023-04-20T07:05:55;98749.56;;;26.03;34.43
51239;BME280;38154;47.548;18.828;2023-04-20T07:08:21;98754.66;;;26.49;34.08
51239;BME280;38154;47.548;18.828;2023-04-20T07:10:46;98749.88;;;27.36;32.92
51239;BME280;38154;47.548;18.828;2023-04-20T07:13:12;98755.31;;;26.67;32.41
51239;BME280;38154;47.548;18.828;2023-04-20T07:15:38;98758.87;;;26.39;32.61
51239;BME280;38154;47.548;18.828;2023-04-20T07:18:03;98758.87;;;27.48;31.00
51239;BME280;38154;47.548;18.828;2023-04-20T07:20:29;98767.78;;;27.61;30.31
51239;BME280;38154;47.548;18.828;2023-04-20T07:22:55;98758.00;;;27.34;30.88
51239;BME280;38154;47.548;18.828;2023-04-20T07:25:21;98763.66;;;27.30;30.78
51239;BME280;38154;47.548;18.828;2023-04-20T07:27:47;98758.91;;;26.80;31.42
51239;BME280;38154;47.548;18.828;2023-04-20T07:30:13;98763.94;;;27.12;31.53
51239;BME280;38154;47.548;18.828;2023-04-20T07:32:39;98756.34;;;27.59;30.85
51239;BME280;38154;47.548;18.828;2023-04-20T07:35:05;98756.09;;;28.26;32.29
51239;BME280;38154;47.548;18.828;2023-04-20T07:37:32;98762.81;;;28.82;30.35
51239;BME280;38154;47.548;18.828;2023-04-20T07:39:57;98757.28;;;29.20;29.92
51239;BME280;38154;47.548;18.828;2023-04-20T07:42:23;98760.78;;;29.45;28.85
51239;BME280;38154;47.548;18.828;2023-04-20T07:44:48;98750.84;;;29.23;29.11
51239;BME280;38154;47.548;18.828;2023-04-20T07:47:14;98752.38;;;28.90;30.19
51239;BME280;38154;47.548;18.828;2023-04-20T07:49:40;98761.50;;;28.50;31.38
51239;BME280;38154;47.548;18.828;2023-04-20T07:52:06;98756.78;;;28.17;30.88
51239;BME280;38154;47.548;18.828;2023-04-20T07:54:32;98767.00;;;28.49;30.70
51239;BME280;38154;47.548;18.828;2023-04-20T07:56:58;98757.41;;;28.08;31.01
51239;BME280;38154;47.548;18.828;2023-04-20T07:59:23;98756.50;;;28.33;30.48
51239;BME280;38154;47.548;18.828;2023-04-20T08:01:49;98763.09;;;28.90;29.24
51239;BME280;38154;47.548;18.828;2023-04-20T08:04:15;98764.69;;;29.52;28.34
51239;BME280;38154;47.548;18.828;2023-04-20T08:06:41;98767.53;;;29.62;29.20
51239;BME280;38154;47.548;18.828;2023-04-20T08:09:07;98763.56;;;29.08;29.36
51239;BME280;38154;47.548;18.828;2023-04-20T08:11:33;98765.72;;;29.03;28.65
51239;BME280;38154;47.548;18.828;2023-04-20T08:13:58;98758.28;;;29.31;28.44
51239;BME280;38154;47.548;18.828;2023-04-20T08:16:24;98758.37;;;29.53;27.74
51239;BME280;38154;47.548;18.828;2023-04-20T08:18:50;98760.41;;;29.85;28.13
51239;BME280;38154;47.548;18.828;2023-04-20T08:21:15;98761.41;;;29.49;27.76
51239;BME280;38154;47.548;18.828;2023-04-20T08:23:41;98764.50;;;29.20;28.85
51239;BME280;38154;47.548;18.828;2023-04-20T08:26:07;98762.47;;;29.93;27.74
51239;BME280;38154;47.548;18.828;2023-04-20T08:28:32;98764.72;;;29.64;26.62
51239;BME280;38154;47.548;18.828;2023-04-20T08:30:58;98765.66;;;29.40;27.79
51239;BME280;38154;47.548;18.828;2023-04-20T08:33:24;98753.03;;;29.29;27.97
51239;BME280;38154;47.548;18.828;2023-04-20T08:35:50;98764.28;;;29.34;27.97
51239;BME280;38154;47.548;18.828;2023-04-20T08:38:17;98762.59;;;30.37;26.89
51239;BME280;38154;47.548;18.828;2023-04-20T08:40:42;98766.69;;;30.75;25.37
51239;BME280;38154;47.548;18.828;2023-04-20T08:43:08;98769.16;;;30.78;26.10
51239;BME280;38154;47.548;18.828;2023-04-20T08:45:33;98766.75;;;29.95;27.01
51239;BME280;38154;47.548;18.828;2023-04-20T08:48:06;98756.94;;;29.72;28.97
51239;BME280;38154;47.548;18.828;2023-04-20T08:50:32;98752.97;;;30.00;27.66
51239;BME280;38154;47.548;18.828;2023-04-20T08:52:58;98759.16;;;29.78;26.74
51239;BME280;38154;47.548;18.828;2023-04-20T08:55:24;98752.88;;;29.55;27.54
51239;BME280;38154;47.548;18.828;2023-04-20T08:57:50;98759.53;;;30.30;27.37
51239;BME280;38154;47.548;18.828;2023-04-20T09:00:15;98762.84;;;30.88;26.06
51239;BME280;38154;47.548;18.828;2023-04-20T09:02:48;98768.66;;;30.73;27.09
51239;BME280;38154;47.548;18.828;2023-04-20T09:05:14;98761.38;;;30.29;26.64
51239;BME280;38154;47.548;18.828;2023-04-20T09:07:49;98755.75;;;30.10;28.70
51239;BME280;38154;47.548;18.828;2023-04-20T09:10:15;98754.28;;;30.51;27.55
51239;BME280;38154;47.548;18.828;2023-04-20T09:12:41;98756.19;;;30.71;26.15
51239;BME280;38154;47.548;18.828;2023-04-20T09:15:07;98755.12;;;30.29;26.88
51239;BME280;38154;47.548;18.828;2023-04-20T09:17:33;98754.38;;;30.61;26.54
51239;BME280;38154;47.548;18.828;2023-04-20T09:19:59;98755.06;;;31.39;25.84
51239;BME280;38154;47.548;18.828;2023-04-20T09:22:31;98756.28;;;31.67;26.96
51239;BME280;38154;47.548;18.828;2023-04-20T09:24:58;98760.41;;;31.29;26.10
51239;BME280;38154;47.548;18.828;2023-04-20T09:27:23;98754.47;;;32.20;25.67
51239;BME280;38154;47.548;18.828;2023-04-20T09:30:00;98758.50;;;32.35;24.93
51239;BME280;38154;47.548;18.828;2023-04-20T09:32:28;98755.97;;;32.43;24.13
51239;BME280;38154;47.548;18.828;2023-04-20T09:34:54;98745.31;;;30.62;25.54
51239;BME280;38154;47.548;18.828;2023-04-20T09:37:20;98753.81;;;31.22;25.73
51239;BME280;38154;47.548;18.828;2023-04-20T09:39:47;98756.81;;;31.82;26.10
51239;BME280;38154;47.548;18.828;2023-04-20T09:42:13;98750.75;;;31.90;25.12
51239;BME280;38154;47.548;18.828;2023-04-20T09:44:39;98744.59;;;31.03;26.24
51239;BME280;38154;47.548;18.828;2023-04-20T09:47:06;98744.75;;;30.36;26.35
51239;BME280;38154;47.548;18.828;2023-04-20T09:49:32;98740.56;;;29.75;27.05
51239;BME280;38154;47.548;18.828;2023-04-20T09:52:00;98739.34;;;26.51;31.15
51239;BME280;38154;47.548;18.828;2023-04-20T09:54:26;98744.84;;;27.04;30.23
51239;BME280;38154;47.548;18.828;2023-04-20T09:56:52;98738.97;;;28.53;28.80
51239;BME280;38154;47.548;18.828;2023-04-20T09:59:18;98734.81;;;28.49;28.29
51239;BME280;38154;47.548;18.828;2023-04-20T10:01:46;98737.53;;;28.73;28.48
51239;BME280;38154;47.548;18.828;2023-04-20T10:04:12;98740.28;;;27.72;30.93
51239;BME280;38154;47.548;18.828;2023-04-20T10:06:39;98737.75;;;26.90;31.84
51239;BME280;38154;47.548;18.828;2023-04-20T10:09:05;98730.69;;;28.19;29.73
51239;BME280;38154;47.548;18.828;2023-04-20T10:11:35;98730.41;;;29.67;26.45
51239;BME280;38154;47.548;18.828;2023-04-20T10:14:13;98734.25;;;29.87;27.77
51239;BME280;38154;47.548;18.828;2023-04-20T10:16:40;98735.09;;;29.41;28.34
51239;BME280;38154;47.548;18.828;2023-04-20T10:19:06;98726.53;;;29.00;26.92
51239;BME280;38154;47.548;18.828;2023-04-20T10:21:32;98719.97;;;26.20;32.66
51239;BME280;38154;47.548;18.828;2023-04-20T10:24:08;98714.28;;;23.65;36.69
51239;BME280;38154;47.548;18.828;2023-04-20T10:26:41;98717.41;;;23.03;37.91
51239;BME280;38154;47.548;18.828;2023-04-20T10:29:07;98707.69;;;22.31;37.12
51239;BME280;38154;47.548;18.828;2023-04-20T10:31:34;98707.75;;;22.29;40.40
51239;BME280;38154;47.548;18.828;2023-04-20T10:33:59;98705.06;;;23.88;37.03
51239;BME280;38154;47.548;18.828;2023-04-20T10:36:29;98714.16;;;26.14;32.56
51239;BME280;38154;47.548;18.828;2023-04-20T10:38:56;98705.94;;;26.58;30.84
51239;BME280;38154;47.548;18.828;2023-04-20T10:41:21;98708.47;;;26.33;32.27
51239;BME280;38154;47.548;18.828;2023-04-20T10:43:47;98704.03;;;27.79;32.16
51239;BME280;38154;47.548;18.828;2023-04-20T10:46:22;98699.81;;;28.99;29.57
51239;BME280;38154;47.548;18.828;2023-04-20T10:48:57;98705.66;;;29.97;28.46
51239;BME280;38154;47.548;18.828;2023-04-20T10:51:25;98708.94;;;30.24;26.37
51239;BME280;38154;47.548;18.828;2023-04-20T10:57:03;98694.41;;;26.98;30.25
51239;BME280;38154;47.548;18.828;2023-04-20T10:59:21;98691.09;;;25.25;33.90
51239;BME280;38154;47.548;18.828;2023-04-20T11:01:48;98690.91;;;24.03;34.40
51239;BME280;38154;47.548;18.828;2023-04-20T11:04:14;98681.19;;;23.36;35.95
51239;BME280;38154;47.548;18.828;2023-04-20T11:06:41;98682.41;;;22.58;38.41
51239;BME280;38154;47.548;18.828;2023-04-20T11:09:19;98673.72;;;21.99;38.62
51239;BME280;38154;47.548;18.828;2023-04-20T11:11:45;98667.94;;;21.31;40.56
51239;BME280;38154;47.548;18.828;2023-04-20T11:14:11;98670.66;;;21.09;40.51
51239;BME280;38154;47.548;18.828;2023-04-20T11:16:37;98670.72;;;21.07;43.06
51239;BME280;38154;47.548;18.828;2023-04-20T11:19:03;98672.47;;;21.08;40.61
51239;BME280;38154;47.548;18.828;2023-04-20T11:21:35;98669.28;;;21.00;40.13
51239;BME280;38154;47.548;18.828;2023-04-20T11:24:02;98666.28;;;21.08;40.94
51239;BME280;38154;47.548;18.828;2023-04-20T11:26:35;98660.94;;;21.30;41.53
51239;BME280;38154;47.548;18.828;2023-04-20T11:29:01;98660.69;;;21.35;41.33
51239;BME280;38154;47.548;18.828;2023-04-20T11:31:26;98659.72;;;22.88;37.87
51239;BME280;38154;47.548;18.828;2023-04-20T11:33:53;98666.87;;;23.71;36.29
51239;BME280;38154;47.548;18.828;2023-04-20T11:36:19;98664.97;;;23.07;37.66
51239;BME280;38154;47.548;18.828;2023-04-20T11:38:45;98658.47;;;22.77;37.10
51239;BME280;38154;47.548;18.828;2023-04-20T11:41:11;98662.34;;;21.77;38.06
51239;BME280;38154;47.548;18.828;2023-04-20T11:43:37;98663.16;;;21.79;38.50
51239;BME280;38154;47.548;18.828;2023-04-20T11:46:02;98659.09;;;21.91;38.45
51239;BME280;38154;47.548;18.828;2023-04-20T11:48:36;98655.78;;;21.85;37.44
51239;BME280;38154;47.548;18.828;2023-04-20T11:51:02;98667.19;;;21.87;38.47
51239;BME280;38154;47.548;18.828;2023-04-20T11:53:28;98665.78;;;22.17;40.06
51239;BME280;38154;47.548;18.828;2023-04-20T11:55:53;98656.06;;;21.98;38.09
51239;BME280;38154;47.548;18.828;2023-04-20T11:58:20;98668.53;;;21.96;37.35
51239;BME280;38154;47.548;18.828;2023-04-20T12:00:45;98669.59;;;21.73;38.46
51239;BME280;38154;47.548;18.828;2023-04-20T12:03:11;98663.06;;;21.61;36.78
51239;BME280;38154;47.548;18.828;2023-04-20T12:05:37;98654.81;;;21.28;36.99
51239;BME280;38154;47.548;18.828;2023-04-20T12:08:02;98658.06;;;21.14;38.60
51239;BME280;38154;47.548;18.828;2023-04-20T12:10:28;98664.66;;;21.84;38.02
51239;BME280;38154;47.548;18.828;2023-04-20T12:12:54;98655.78;;;23.30;35.36
51239;BME280;38154;47.548;18.828;2023-04-20T12:15:21;98656.09;;;24.06;34.55
51239;BME280;38154;47.548;18.828;2023-04-20T12:17:46;98659.37;;;24.43;34.54
51239;BME280;38154;47.548;18.828;2023-04-20T12:20:12;98650.16;;;24.33;32.51
51239;BME280;38154;47.548;18.828;2023-04-20T12:22:38;98650.41;;;24.44;35.61
51239;BME280;38154;47.548;18.828;2023-04-20T12:25:04;98642.44;;;24.13;33.69
51239;BME280;38154;47.548;18.828;2023-04-20T12:27:30;98639.88;;;23.95;36.47
51239;BME280;38154;47.548;18.828;2023-04-20T12:29:56;98639.69;;;24.14;36.43
51239;BME280;38154;47.548;18.828;2023-04-20T12:32:21;98639.53;;;24.17;35.68
51239;BME280;38154;47.548;18.828;2023-04-20T12:34:47;98645.37;;;23.92;34.12
51239;BME280;38154;47.548;18.828;2023-04-20T12:37:13;98645.06;;;23.14;34.96
51239;BME280;38154;47.548;18.828;2023-04-20T12:39:39;98638.09;;;22.22;37.24
51239;BME280;38154;47.548;18.828;2023-04-20T12:42:05;98637.13;;;21.68;37.82
51239;BME280;38154;47.548;18.828;2023-04-20T12:44:30;98633.44;;;21.31;38.28
51239;BME280;38154;47.548;18.828;2023-04-20T12:46:56;98631.63;;;21.12;38.69
51239;BME280;38154;47.548;18.828;2023-04-20T12:49:22;98630.50;;;20.98;39.60